Time,TemperatureF,DewpointF,PressureIn,WindDirection,WindDirectionDegrees,WindSpeedMPH,WindSpeedGustMPH,Humidity,HourlyPrecipIn,Conditions,Clouds,dailyrainin,SoftwareType,DateUTC
2013-02-12 07:52:00,13.0,11.0,29.90,South,184,0.0,3.0,90,0.00,,,0.00,,2013-02-12 13:52:00,
2013-02-12 08:01:00,14.0,12.0,29.89,SSW,207,1.0,5.0,91,0.00,,,0.00,,2013-02-12 14:01:00,
2013-02-12 08:12:00,14.0,12.0,29.89,SSW,207,1.0,5.0,91,0.00,,,0.00,,2013-02-12 14:12:00,
2013-02-12 08:21:00,15.0,13.0,29.89,SW,217,1.0,3.0,91,0.00,,,0.00,,2013-02-12 14:21:00,
2013-02-12 08:32:00,16.0,13.0,29.89,West,263,1.0,6.0,89,0.00,,,0.00,,2013-02-12 14:32:00,
2013-02-12 08:42:00,16.0,13.0,29.89,West,263,1.0,6.0,89,0.00,,,0.00,,2013-02-12 14:42:00,
2013-02-12 08:52:00,17.0,14.0,29.88,SSW,208,3.0,9.0,88,0.00,,,0.00,,2013-02-12 14:52:00,
2013-02-12 09:02:00,19.0,16.0,29.88,West,266,3.0,7.0,86,0.00,,,0.00,,2013-02-12 15:02:00,
2013-02-12 09:11:00,21.0,17.0,29.88,SSW,208,4.0,10.0,84,0.00,,,0.00,,2013-02-12 15:11:00,
2013-02-12 09:21:00,21.0,17.0,29.88,SSW,208,4.0,10.0,84,0.00,,,0.00,,2013-02-12 15:21:00,
2013-02-12 09:32:00,21.0,17.0,29.88,WSW,253,2.0,10.0,84,0.00,,,0.00,,2013-02-12 15:32:00,
2013-02-12 09:42:00,21.0,17.0,29.88,WSW,253,2.0,10.0,84,0.00,,,0.00,,2013-02-12 15:42:00,
2013-02-12 09:52:00,21.0,17.0,29.87,South,191,5.0,9.0,83,0.00,,,0.00,,2013-02-12 15:52:00,
2013-02-12 10:01:00,21.0,17.0,29.87,WSW,243,5.0,9.0,83,0.00,,,0.00,,2013-02-12 16:01:00,
2013-02-12 10:11:00,21.0,17.0,29.87,WSW,243,5.0,9.0,83,0.00,,,0.00,,2013-02-12 16:11:00,
2013-02-12 10:22:00,23.0,18.0,29.86,South,187,4.0,9.0,82,0.00,,,0.00,,2013-02-12 16:22:00,
2013-02-12 10:31:00,24.0,19.0,29.86,WSW,239,2.0,7.0,81,0.00,,,0.00,,2013-02-12 16:31:00,
2013-02-12 10:41:00,24.0,19.0,29.86,WSW,239,2.0,7.0,81,0.00,,,0.00,,2013-02-12 16:41:00,
2013-02-12 10:52:00,25.0,20.0,29.86,WNW,300,4.0,8.0,80,0.00,,,0.00,,2013-02-12 16:52:00,
2013-02-12 11:01:00,26.0,20.0,29.85,SSW,200,2.0,11.0,78,0.00,,,0.00,,2013-02-12 17:01:00,
2013-02-12 11:12:00,26.0,20.0,29.85,SSW,200,2.0,11.0,78,0.00,,,0.00,,2013-02-12 17:12:00,
2013-02-12 11:21:00,26.0,19.0,29.85,WNW,290,6.0,9.0,76,0.00,,,0.00,,2013-02-12 17:21:00,
2013-02-12 11:32:00,28.0,21.0,29.85,West,277,4.0,9.0,74,0.00,,,0.00,,2013-02-12 17:32:00,
2013-02-12 11:42:00,28.0,21.0,29.85,West,277,4.0,9.0,74,0.00,,,0.00,,2013-02-12 17:42:00,
2013-02-12 11:52:00,28.0,20.0,29.84,SW,226,5.0,11.0,73,0.00,,,0.00,,2013-02-12 17:52:00,
2013-02-12 12:01:00,29.0,21.0,29.84,West,276,2.0,9.0,72,0.00,,,0.00,,2013-02-12 18:01:00,
2013-02-12 12:11:00,29.0,21.0,29.84,West,276,2.0,9.0,72,0.00,,,0.00,,2013-02-12 18:11:00,
2013-02-12 12:23:00,29.0,21.0,29.84,West,276,2.0,9.0,72,0.00,,,0.00,,2013-02-12 18:23:00,
2013-02-12 12:31:00,30.0,21.0,29.83,SW,235,4.0,7.0,70,0.00,,,0.00,,2013-02-12 18:31:00,
2013-02-12 12:41:00,30.0,21.0,29.83,SW,235,4.0,7.0,70,0.00,,,0.00,,2013-02-12 18:41:00,
2013-02-12 12:52:00,30.0,21.0,29.82,WSW,252,0.0,9.0,69,0.00,,,0.00,,2013-02-12 18:52:00,
2013-02-12 13:02:00,31.0,21.0,29.80,SW,224,4.0,6.0,67,0.00,,,0.00,,2013-02-12 19:02:00,
2013-02-12 13:11:00,31.0,21.0,29.80,SW,224,4.0,6.0,67,0.00,,,0.00,,2013-02-12 19:11:00,
2013-02-12 13:21:00,31.0,21.0,29.80,SW,232,3.0,7.0,67,0.00,,,0.00,,2013-02-12 19:21:00,
2013-02-12 13:31:00,31.0,21.0,29.80,West,278,2.0,7.0,67,0.00,,,0.00,,2013-02-12 19:31:00,
2013-02-12 13:41:00,31.0,21.0,29.80,West,278,2.0,7.0,67,0.00,,,0.00,,2013-02-12 19:41:00,
2013-02-12 13:52:00,32.0,22.0,29.79,SW,218,3.0,9.0,66,0.00,,,0.00,,2013-02-12 19:52:00,
2013-02-12 14:01:00,32.0,22.0,29.78,West,260,2.0,7.0,65,0.00,,,0.00,,2013-02-12 20:01:00,
2013-02-12 14:11:00,32.0,22.0,29.78,West,260,2.0,7.0,65,0.00,,,0.00,,2013-02-12 20:11:00,
2013-02-12 14:21:00,33.0,23.0,29.79,SSE,165,2.0,6.0,65,0.00,,,0.00,,2013-02-12 20:21:00,
2013-02-12 14:31:00,33.0,22.0,29.79,WSW,245,1.0,8.0,64,0.00,,,0.00,,2013-02-12 20:31:00,
2013-02-12 14:41:00,33.0,22.0,29.79,WSW,245,1.0,8.0,64,0.00,,,0.00,,2013-02-12 20:41:00,
2013-02-12 14:52:00,33.0,23.0,29.78,West,267,3.0,11.0,65,0.00,,,0.00,,2013-02-12 20:52:00,
2013-02-12 15:01:00,34.0,23.0,29.78,West,263,2.0,5.0,64,0.00,,,0.00,,2013-02-12 21:01:00,
2013-02-12 15:11:00,34.0,23.0,29.78,West,263,2.0,5.0,64,0.00,,,0.00,,2013-02-12 21:11:00,
2013-02-12 15:21:00,34.0,23.0,29.78,SW,233,2.0,5.0,63,0.01,,,0.01,,2013-02-12 21:21:00,
2013-02-12 15:31:00,34.0,23.0,29.79,WSW,246,4.0,9.0,63,0.01,,,0.01,,2013-02-12 21:31:00,
2013-02-12 15:42:00,34.0,23.0,29.79,WSW,252,2.0,7.0,63,0.02,,,0.02,,2013-02-12 21:42:00,
2013-02-12 15:52:00,34.0,23.0,29.79,WSW,252,2.0,7.0,63,0.02,,,0.02,,2013-02-12 21:52:00,
2013-02-12 16:01:00,34.0,23.0,29.79,WSW,246,3.0,8.0,63,0.02,,,0.02,,2013-02-12 22:01:00,
2013-02-12 16:12:00,34.0,23.0,29.79,WSW,246,3.0,8.0,63,0.02,,,0.02,,2013-02-12 22:12:00,
2013-02-12 16:21:00,34.0,23.0,29.78,WSW,243,1.0,6.0,63,0.01,,,0.02,,2013-02-12 22:21:00,
2013-02-12 16:32:00,34.0,23.0,29.78,West,269,1.0,7.0,63,0.01,,,0.02,,2013-02-12 22:32:00,
2013-02-12 16:41:00,34.0,23.0,29.78,West,269,1.0,7.0,63,0.01,,,0.02,,2013-02-12 22:41:00,
2013-02-12 16:52:00,33.0,23.0,29.79,WSW,245,1.0,6.0,65,0.01,,,0.03,,2013-02-12 22:52:00,
2013-02-12 17:01:00,32.0,22.0,29.79,West,273,2.0,4.0,67,0.01,,,0.03,,2013-02-12 23:01:00,
2013-02-12 17:11:00,32.0,22.0,29.79,West,273,2.0,4.0,67,0.01,,,0.03,,2013-02-12 23:11:00,
2013-02-12 17:21:00,32.0,22.0,29.79,West,273,2.0,4.0,67,0.01,,,0.03,,2013-02-12 23:21:00,
2013-02-12 17:31:00,32.0,22.0,29.79,West,273,2.0,4.0,67,0.01,,,0.03,,2013-02-12 23:31:00,
2013-02-12 17:42:00,32.0,22.0,29.79,West,273,2.0,4.0,67,0.01,,,0.03,,2013-02-12 23:42:00,
2013-02-12 18:22:00,27.0,20.0,29.79,West,267,1.0,4.0,75,0.00,,,0.03,,2013-02-13 00:22:00,
2013-02-12 18:32:00,27.0,20.0,29.79,WNW,285,0.0,2.0,76,0.00,,,0.03,,2013-02-13 00:32:00,
2013-02-12 18:42:00,27.0,20.0,29.79,WNW,285,0.0,2.0,76,0.00,,,0.03,,2013-02-13 00:42:00,
2013-02-12 18:52:00,27.0,20.0,29.79,WNW,285,0.0,2.0,76,0.00,,,0.03,,2013-02-13 00:52:00,
2013-02-12 19:01:00,27.0,20.0,29.79,WNW,285,0.0,2.0,76,0.00,,,0.03,,2013-02-13 01:01:00,
2013-02-12 19:11:00,27.0,20.0,29.79,WNW,285,0.0,2.0,76,0.00,,,0.03,,2013-02-13 01:11:00,
2013-02-12 22:32:00,23.0,19.0,29.77,WNW,282,1.0,4.0,83,0.00,,,0.03,,2013-02-13 04:32:00,
2013-02-12 22:42:00,23.0,19.0,29.77,WNW,282,1.0,4.0,83,0.00,,,0.03,,2013-02-13 04:42:00,
2013-02-12 22:52:00,23.0,19.0,29.77,WSW,245,1.0,3.0,83,0.00,,,0.03,,2013-02-13 04:52:00,
2013-02-12 23:01:00,23.0,19.0,29.76,West,266,1.0,2.0,83,0.00,,,0.03,,2013-02-13 05:01:00,
2013-02-12 23:11:00,23.0,19.0,29.76,WSW,249,0.0,3.0,84,0.00,,,0.03,,2013-02-13 05:11:00,
2013-02-12 23:22:00,23.0,19.0,29.76,WSW,249,0.0,3.0,84,0.00,,,0.03,,2013-02-13 05:22:00,
2013-02-12 23:31:00,23.0,19.0,29.75,WSW,256,0.0,2.0,84,0.00,,,0.03,,2013-02-13 05:31:00,
2013-02-12 23:42:00,23.0,19.0,29.75,WSW,256,0.0,2.0,84,0.00,,,0.03,,2013-02-13 05:42:00,
2013-02-12 23:52:00,23.0,19.0,29.75,WSW,248,1.0,3.0,84,0.00,,,0.03,,2013-02-13 05:52:00,